Time;durP1;ratioP1;P1;durP2;ratioP2;P2;SDS_P1;SDS_P2;PMS_P1;PMS_P2;Temp;Humidity;BMP_temperature;BMP_pressure;BME280_temperature;BME280_humidity;BME280_pressure;Samples;Min_cycle;Max_cycle;Signal;HPM_P1;HPM_P2
2023/10/09 00:01:13;;;;;;;2.35;0.90;;;13.60;99.90;;;;;;5111065;28;20067;-74
2023/10/09 00:03:46;;;;;;;1.13;0.75;;;13.60;99.90;;;;;;5110531;28;20074;-74
2023/10/09 00:06:15;;;;;;;0.90;0.80;;;13.60;99.90;;;;;;5110596;28;20039;-74
2023/10/09 00:08:44;;;;;;;1.30;0.88;;;13.60;99.90;;;;;;5092181;28;20035;-74
2023/10/09 00:11:16;;;;;;;1.65;1.10;;;13.60;99.90;;;;;;5094607;28;20079;-74
2023/10/09 00:13:48;;;;;;;1.65;0.80;;;13.60;99.90;;;;;;5101624;28;20081;-74
2023/10/09 00:16:34;;;;;;;2.38;1.00;;;13.60;99.90;;;;;;5104885;28;20513;-74
2023/10/09 00:19:16;;;;;;;1.80;1.02;;;13.60;99.90;;;;;;5104332;28;20440;-74
2023/10/09 00:21:44;;;;;;;1.55;0.98;;;13.60;99.90;;;;;;5095019;28;20043;-74
2023/10/09 00:24:24;;;;;;;1.35;0.95;;;13.60;99.90;;;;;;5084537;28;20597;-74
2023/10/09 00:27:14;;;;;;;1.67;0.85;;;13.60;99.90;;;;;;5109662;28;20039;-74
2023/10/09 00:29:45;;;;;;;2.08;1.20;;;13.60;99.90;;;;;;5110121;28;20040;-74
2023/10/09 00:32:37;;;;;;;2.55;1.38;;;13.60;99.90;;;;;;5110615;28;20439;-74
2023/10/09 00:35:36;;;;;;;2.28;1.23;;;13.60;99.90;;;;;;5109991;28;20047;-74
2023/10/09 00:37:47;;;;;;;1.60;1.00;;;13.60;99.90;;;;;;5101264;28;20532;-74
2023/10/09 00:40:20;;;;;;;2.08;1.20;;;13.70;99.90;;;;;;5093558;28;20036;-74
2023/10/09 00:42:47;;;;;;;1.77;1.30;;;13.70;99.90;;;;;;5110435;28;20074;-74
2023/10/09 00:45:25;;;;;;;2.15;1.25;;;13.70;99.90;;;;;;5110027;28;20044;-74
2023/10/09 00:47:56;;;;;;;1.85;1.10;;;13.70;99.90;;;;;;5100070;28;20858;-74
2023/10/09 00:50:23;;;;;;;2.33;1.50;;;13.70;99.90;;;;;;5090204;28;20126;-74
2023/10/09 00:53:04;;;;;;;2.38;1.50;;;13.70;99.90;;;;;;5110234;28;20466;-74
2023/10/09 00:55:55;;;;;;;2.00;1.27;;;13.70;99.90;;;;;;5110175;28;20039;-74
2023/10/09 00:58:30;;;;;;;1.85;1.20;;;13.70;99.90;;;;;;5109859;28;20047;-74
2023/10/09 01:00:59;;;;;;;2.70;1.50;;;13.70;99.90;;;;;;5110230;28;20100;-74
2023/10/09 01:03:26;;;;;;;2.60;1.48;;;13.70;99.90;;;;;;5093539;28;20054;-74
2023/10/09 01:11:19;;;;;;;2.53;1.65;;;13.70;99.90;;;;;;5110167;28;20058;-76
2023/10/09 01:13:52;;;;;;;3.17;1.67;;;13.80;99.90;;;;;;5094285;28;20039;-76
2023/10/09 01:16:22;;;;;;;3.40;1.85;;;13.80;99.90;;;;;;5096710;28;20115;-76
2023/10/09 01:18:53;;;;;;;3.15;1.80;;;13.70;99.90;;;;;;5109810;28;20067;-76
2023/10/09 01:21:24;;;;;;;4.00;2.22;;;13.80;99.90;;;;;;5085050;28;20039;-76
2023/10/09 01:24:03;;;;;;;2.78;1.70;;;13.80;99.90;;;;;;5087437;28;20119;-76
2023/10/09 01:26:46;;;;;;;2.70;1.65;;;13.80;99.90;;;;;;5111232;28;20111;-76
2023/10/09 01:29:20;;;;;;;2.60;1.70;;;13.90;99.90;;;;;;5111328;28;20043;-76
2023/10/09 01:32:00;;;;;;;5.13;2.20;;;13.80;99.90;;;;;;5113839;28;20155;-76
2023/10/09 01:37:15;;;;;;;4.28;2.60;;;13.80;99.90;;;;;;5113962;28;20162;-76
2023/10/09 01:39:42;;;;;;;4.30;2.63;;;13.80;99.90;;;;;;5114095;28;20031;-76
2023/10/09 01:42:09;;;;;;;4.80;2.78;;;13.80;99.90;;;;;;5101030;28;20498;-76
2023/10/09 01:44:42;;;;;;;5.53;2.70;;;13.90;99.90;;;;;;5113729;28;20044;-76
2023/10/09 01:47:13;;;;;;;6.05;3.25;;;13.90;99.90;;;;;;5113785;28;20505;-76
2023/10/09 01:49:43;;;;;;;4.40;2.63;;;13.80;99.90;;;;;;5096485;28;20047;-76
2023/10/09 01:52:16;;;;;;;4.28;2.80;;;13.80;99.90;;;;;;5113653;28;20535;-76
2023/10/09 01:54:49;;;;;;;3.97;2.70;;;13.90;99.90;;;;;;5113967;28;20493;-76
2023/10/09 01:57:25;;;;;;;5.25;2.88;;;13.90;99.90;;;;;;5113500;28;20035;-76
2023/10/09 01:59:55;;;;;;;4.78;3.15;;;13.80;99.90;;;;;;5114877;28;20164;-76
2023/10/09 02:02:27;;;;;;;4.65;2.80;;;13.80;99.90;;;;;;5110583;28;20040;-76
2023/10/09 02:04:54;;;;;;;3.70;2.50;;;13.90;99.90;;;;;;5088667;28;20055;-76
2023/10/09 02:07:27;;;;;;;4.72;2.85;;;13.90;99.90;;;;;;5092792;28;20044;-76
2023/10/09 02:09:56;;;;;;;3.85;2.30;;;13.80;99.90;;;;;;5092526;28;20470;-76
2023/10/09 02:12:23;;;;;;;6.05;2.60;;;13.90;99.90;;;;;;5092453;28;20216;-76
2023/10/09 02:14:53;;;;;;;3.92;2.60;;;13.90;99.90;;;;;;5092791;28;20056;-76
2023/10/09 02:17:28;;;;;;;3.72;2.50;;;13.90;99.90;;;;;;5099127;28;20058;-76
2023/10/09 02:19:54;;;;;;;5.13;2.92;;;13.90;99.90;;;;;;5075310;28;20395;-76
2023/10/09 02:22:21;;;;;;;5.72;3.47;;;13.80;99.90;;;;;;5102518;28;20047;-76
2023/10/09 02:24:57;;;;;;;4.82;3.40;;;13.80;99.90;;;;;;5106222;28;20050;-76
2023/10/09 02:30:26;;;;;;;5.65;3.60;;;13.80;99.90;;;;;;5109035;28;20181;-76
2023/10/09 02:32:58;;;;;;;5.32;3.55;;;13.80;99.90;;;;;;5112925;28;20083;-76
2023/10/09 02:35:42;;;;;;;6.47;3.50;;;13.80;99.90;;;;;;5092923;28;20048;-76
2023/10/09 02:38:11;;;;;;;5.63;3.45;;;13.80;99.90;;;;;;5095315;28;20065;-76
2023/10/09 02:40:41;;;;;;;5.55;3.30;;;13.80;99.90;;;;;;5089643;28;20332;-77
2023/10/09 02:43:17;;;;;;;4.43;3.10;;;13.80;99.90;;;;;;5105871;28;20055;-76
2023/10/09 02:45:50;;;;;;;5.28;3.38;;;13.80;99.90;;;;;;5112526;28;20051;-76
2023/10/09 02:48:26;;;;;;;6.93;4.22;;;13.80;99.90;;;;;;5096271;28;20455;-76
2023/10/09 02:50:51;;;;;;;7.95;4.45;;;13.70;99.90;;;;;;5112673;28;20075;-76
2023/10/09 02:53:29;;;;;;;9.48;5.25;;;13.80;99.90;;;;;;5085087;28;20094;-76
2023/10/09 02:56:12;;;;;;;6.65;4.70;;;13.80;99.90;;;;;;5091587;28;20637;-76
2023/10/09 02:58:40;;;;;;;7.18;4.90;;;13.80;99.90;;;;;;5091874;28;20083;-76
2023/10/09 03:01:10;;;;;;;7.13;4.95;;;13.80;99.90;;;;;;5078763;28;20442;-76
2023/10/09 03:03:38;;;;;;;10.40;6.72;;;13.80;99.90;;;;;;5108019;28;20497;-76
2023/10/09 03:06:10;;;;;;;8.35;5.57;;;13.80;99.90;;;;;;5097604;28;20499;-76
2023/10/09 03:08:37;;;;;;;8.63;5.75;;;13.80;99.90;;;;;;5111902;28;20039;-76
2023/10/09 03:11:05;;;;;;;7.03;5.22;;;13.80;99.90;;;;;;5111775;28;20051;-76
2023/10/09 03:13:33;;;;;;;6.90;4.55;;;13.80;99.90;;;;;;5111619;28;20055;-76
2023/10/09 03:15:59;;;;;;;7.95;5.50;;;13.80;99.90;;;;;;5111750;28;20035;-76
2023/10/09 03:18:24;;;;;;;;;;;13.90;99.90;;;;;;5111762;28;20431;-76
2023/10/09 03:20:50;;;;;;;7.35;5.25;;;13.90;99.90;;;;;;5111325;28;20056;-76
2023/10/09 03:23:16;;;;;;;7.38;5.13;;;13.90;99.90;;;;;;5094231;28;20058;-76
2023/10/09 03:25:45;;;;;;;8.35;5.65;;;14.00;99.90;;;;;;5111370;28;20036;-76
2023/10/09 03:28:12;;;;;;;8.27;5.57;;;13.90;99.90;;;;;;5112469;28;20045;-76
2023/10/09 03:30:40;;;;;;;10.23;6.85;;;14.00;99.90;;;;;;5076647;28;20448;-77
2023/10/09 03:33:06;;;;;;;7.90;5.63;;;14.00;99.90;;;;;;5103939;28;20079;-76
2023/10/09 03:35:34;;;;;;;7.85;5.20;;;14.00;99.90;;;;;;5093986;28;20508;-76
2023/10/09 03:38:03;;;;;;;7.07;5.53;;;14.10;99.90;;;;;;5105936;28;20126;-76
2023/10/09 03:40:32;;;;;;;10.93;6.70;;;14.10;99.90;;;;;;5091574;28;20040;-76
2023/10/09 03:42:57;;;;;;;10.90;7.40;;;14.30;99.90;;;;;;5092270;28;20048;-77
2023/10/09 03:45:25;;;;;;;9.85;6.90;;;14.40;99.90;;;;;;5107536;28;20074;-76
2023/10/09 03:50:43;;;;;;;8.63;6.25;;;14.50;99.90;;;;;;5108144;28;20413;-76
2023/10/09 03:53:11;;;;;;;8.52;5.65;;;14.50;99.90;;;;;;5112045;28;20043;-76
2023/10/09 03:55:39;;;;;;;7.65;5.43;;;14.60;99.90;;;;;;5110911;28;20044;-76
2023/10/09 03:58:18;;;;;;;6.90;5.10;;;14.60;99.90;;;;;;5110671;28;20044;-76
2023/10/09 04:00:49;;;;;;;6.63;4.75;;;14.60;99.90;;;;;;5102403;28;20044;-76
2023/10/09 04:03:15;;;;;;;6.65;4.28;;;14.60;99.90;;;;;;5101520;28;20505;-76
2023/10/09 04:05:43;;;;;;;4.47;3.35;;;14.80;99.90;;;;;;5094357;28;20040;-76
2023/10/09 04:08:19;;;;;;;6.45;4.00;;;14.70;99.90;;;;;;5110822;28;20051;-76
2023/10/09 04:10:51;;;;;;;9.00;6.07;;;14.80;99.90;;;;;;5093754;28;20035;-76
2023/10/09 04:13:23;;;;;;;8.38;5.63;;;14.80;99.90;;;;;;5094397;28;20039;-77
2023/10/09 04:15:52;;;;;;;7.68;4.95;;;14.90;99.90;;;;;;5093522;28;20047;-77
2023/10/09 04:18:18;;;;;;;10.25;6.60;;;15.00;99.90;;;;;;5110394;28;20063;-76
2023/10/09 04:23:16;;;;;;;12.95;8.40;;;15.20;99.90;;;;;;5103423;28;20063;-77
2023/10/09 04:25:42;;;;;;;15.48;8.80;;;15.30;99.90;;;;;;5094787;28;20047;-76
2023/10/09 04:30:42;;;;;;;12.75;7.72;;;15.40;99.90;;;;;;5100320;28;20362;-77
2023/10/09 04:36:12;;;;;;;10.15;7.18;;;15.60;99.90;;;;;;5098593;28;20056;-77
2023/10/09 04:38:38;;;;;;;9.32;6.43;;;15.60;99.90;;;;;;5103552;28;20052;-77
2023/10/09 04:41:08;;;;;;;10.48;6.60;;;15.60;99.90;;;;;;5101289;28;20066;-77
2023/10/09 04:43:34;;;;;;;9.95;6.78;;;15.60;99.90;;;;;;5074354;28;20490;-77
2023/10/09 04:46:07;;;;;;;9.75;7.03;;;15.70;99.90;;;;;;5081749;28;20042;-77
2023/10/09 04:48:37;;;;;;;13.13;8.27;;;15.60;99.90;;;;;;5105521;28;20036;-77
2023/10/09 04:51:22;;;;;;;11.00;7.07;;;15.70;99.90;;;;;;5106151;28;20059;-77
2023/10/09 04:56:33;;;;;;;9.68;6.72;;;15.60;99.90;;;;;;5112191;28;20096;-77
2023/10/09 04:59:08;;;;;;;;;;;15.70;99.90;;;;;;5114085;28;20079;-77
2023/10/09 05:01:36;;;;;;;9.48;6.25;;;15.70;99.90;;;;;;5101091;28;19978;-76
2023/10/09 05:04:15;;;;;;;7.47;5.40;;;15.70;99.90;;;;;;5107461;28;20119;-76
2023/10/09 05:06:54;;;;;;;7.82;5.55;;;15.70;99.90;;;;;;5101774;28;20069;-76
2023/10/09 05:09:21;;;;;;;6.72;4.95;;;15.70;99.90;;;;;;5081915;28;20507;-77
2023/10/09 05:11:53;;;;;;;7.43;4.97;;;15.60;99.90;;;;;;5104774;28;20106;-77
2023/10/09 05:15:04;;;;;;;6.28;3.90;;;15.60;99.90;;;;;;5093280;28;20109;-77
2023/10/09 05:17:15;;;;;;;6.32;4.45;;;15.70;99.90;;;;;;5088762;28;20107;-77
2023/10/09 05:20:55;;;;;;;6.13;4.38;;;15.60;99.90;;;;;;5109644;28;20075;-76
2023/10/09 05:22:56;;;;;;;8.10;4.78;;;15.60;99.90;;;;;;5097781;28;20058;-77
2023/10/09 05:25:53;;;;;;;6.40;4.80;;;15.60;99.90;;;;;;5101011;28;20044;-77
2023/10/09 05:31:07;;;;;;;12.32;7.93;;;15.70;99.90;;;;;;5107003;28;20387;-77
2023/10/09 05:33:37;;;;;;;15.13;8.35;;;15.70;99.90;;;;;;5096595;28;20058;-74
2023/10/09 05:38:58;;;;;;;8.13;5.60;;;15.70;99.90;;;;;;5100537;28;20570;-74
2023/10/09 05:41:47;;;;;;;8.75;5.85;;;15.80;99.90;;;;;;5086299;28;20050;-74
2023/10/09 05:45:29;;;;;;;9.75;6.00;;;15.70;99.90;;;;;;5100447;28;20067;-74
2023/10/09 05:49:46;;;;;;;10.43;6.43;;;15.90;99.90;;;;;;5112003;28;20400;-74
2023/10/09 05:52:42;;;;;;;10.88;6.07;;;15.80;99.90;;;;;;5107121;28;20052;-74
2023/10/09 06:08:47;;;;;;;8.73;5.25;;;16.10;99.90;;;;;;5103124;28;20088;-73
2023/10/09 06:19:07;;;;;;;11.45;5.75;;;16.10;99.90;;;;;;5099879;28;20051;-74
2023/10/09 06:22:01;;;;;;;10.88;5.63;;;16.10;99.90;;;;;;5110930;28;20402;-74
2023/10/09 06:29:50;;;;;;;12.45;5.38;;;16.10;99.90;;;;;;5095912;28;20043;-77
2023/10/09 06:43:17;;;;;;;8.48;4.45;;;16.10;99.90;;;;;;5112506;28;20105;-77
2023/10/09 06:45:44;;;;;;;9.93;4.57;;;16.10;99.90;;;;;;5112458;28;20089;-77
2023/10/09 06:51:07;;;;;;;11.38;5.95;;;16.00;99.90;;;;;;5112567;28;20066;-76
2023/10/09 06:59:21;;;;;;;11.07;5.50;;;16.00;99.90;;;;;;5113388;28;20075;-77
2023/10/09 07:07:07;;;;;;;8.73;4.63;;;16.00;99.90;;;;;;5103235;28;20122;-77
2023/10/09 07:09:42;;;;;;;10.32;4.88;;;16.00;99.90;;;;;;5111976;28;20035;-77
2023/10/09 07:12:20;;;;;;;7.10;4.60;;;16.10;99.90;;;;;;5112019;28;20122;-77
2023/10/09 07:23:13;;;;;;;6.75;4.18;;;16.20;99.90;;;;;;5097647;28;20059;-76
2023/10/09 07:25:42;;;;;;;9.70;4.70;;;16.10;99.90;;;;;;5110479;28;20497;-76
2023/10/09 07:28:18;;;;;;;9.27;5.20;;;16.10;99.90;;;;;;5096298;28;20055;-77
2023/10/09 07:30:46;;;;;;;9.10;4.95;;;16.10;99.90;;;;;;5111933;28;20090;-76
2023/10/09 07:38:09;;;;;;;8.32;3.97;;;16.10;99.90;;;;;;5111427;28;20047;-77
2023/10/09 07:41:33;;;;;;;8.50;3.80;;;16.20;99.90;;;;;;5111905;28;20043;-76
2023/10/09 07:43:45;;;;;;;8.47;4.33;;;16.10;99.90;;;;;;5099344;28;20118;-77
2023/10/09 07:46:51;;;;;;;8.73;4.22;;;16.10;99.90;;;;;;5111664;28;20386;-77
2023/10/09 07:49:24;;;;;;;7.22;4.00;;;16.30;99.90;;;;;;5100734;28;20118;-77
2023/10/09 07:51:52;;;;;;;8.15;4.57;;;16.20;99.90;;;;;;5111387;28;20364;-77
2023/10/09 07:54:31;;;;;;;6.40;3.72;;;16.30;99.90;;;;;;5110985;28;20047;-76
2023/10/09 07:57:08;;;;;;;6.97;4.32;;;16.10;99.90;;;;;;5110759;28;20051;-73
2023/10/09 07:59:54;;;;;;;8.95;4.45;;;16.10;99.90;;;;;;5093718;28;20526;-73
2023/10/09 08:02:32;;;;;;;7.50;3.88;;;16.30;99.90;;;;;;5110786;28;20134;-77
2023/10/09 08:05:06;;;;;;;8.63;4.65;;;16.20;99.90;;;;;;5085759;28;20510;-77
2023/10/09 08:07:35;;;;;;;7.25;4.00;;;16.20;99.90;;;;;;5107901;28;20079;-76
2023/10/09 08:18:03;;;;;;;13.20;5.35;;;16.20;99.90;;;;;;5110205;28;20047;-75
2023/10/09 08:20:51;;;;;;;12.20;5.20;;;16.40;99.90;;;;;;5111622;28;20044;-73
2023/10/09 08:24:04;;;;;;;14.32;5.47;;;16.30;99.90;;;;;;5110003;28;20039;-73
2023/10/09 08:26:14;;;;;;;12.57;5.38;;;16.20;99.90;;;;;;5088562;28;20055;-74
2023/10/09 08:28:48;;;;;;;9.73;4.78;;;16.30;99.90;;;;;;5109567;28;20058;-74
2023/10/09 08:31:34;;;;;;;10.27;4.95;;;16.30;99.90;;;;;;5110223;28;20494;-74
2023/10/09 08:34:03;;;;;;;7.20;4.13;;;16.30;99.90;;;;;;5093304;28;20047;-75
2023/10/09 08:36:36;;;;;;;11.00;4.95;;;16.30;99.90;;;;;;5109970;28;20051;-74
2023/10/09 08:39:25;;;;;;;13.73;4.90;;;16.40;99.90;;;;;;5111026;28;20089;-74
2023/10/09 08:42:03;;;;;;;11.15;5.18;;;16.20;99.90;;;;;;5109978;28;20122;-74
2023/10/09 08:44:33;;;;;;;9.98;4.93;;;16.30;99.90;;;;;;5111168;28;20093;-74
2023/10/09 08:46:59;;;;;;;10.77;5.03;;;16.40;99.90;;;;;;5109501;28;20050;-74
2023/10/09 08:49:25;;;;;;;;;;;16.30;99.90;;;;;;5093528;28;20043;-74
2023/10/09 08:51:52;;;;;;;13.30;5.07;;;16.20;99.90;;;;;;5109479;28;19945;-74
2023/10/09 08:54:19;;;;;;;9.85;4.20;;;16.30;99.90;;;;;;5110011;28;20698;-74
2023/10/09 08:56:51;;;;;;;9.45;4.70;;;16.30;99.90;;;;;;5109726;28;20039;-74
2023/10/09 08:59:18;;;;;;;8.32;4.05;;;16.50;99.90;;;;;;5109659;28;20354;-74
2023/10/09 09:01:58;;;;;;;9.68;4.53;;;16.40;99.90;;;;;;5109583;28;20051;-74
2023/10/09 09:04:40;;;;;;;10.23;4.93;;;16.40;99.90;;;;;;5106205;28;20040;-74
2023/10/09 09:07:24;;;;;;;10.85;4.70;;;16.40;99.90;;;;;;5064746;28;20121;-74
2023/10/09 09:10:17;;;;;;;8.60;4.25;;;16.60;99.90;;;;;;5095429;28;20165;-75
2023/10/09 09:12:44;;;;;;;8.25;4.00;;;16.60;99.90;;;;;;5095318;28;20039;-76
2023/10/09 09:15:20;;;;;;;8.32;4.10;;;16.60;99.90;;;;;;5110276;28;20035;-76
2023/10/09 09:17:50;;;;;;;7.43;3.83;;;16.60;99.90;;;;;;5109372;28;20054;-76
2023/10/09 09:20:25;;;;;;;7.68;4.10;;;16.60;99.90;;;;;;5109831;28;20047;-76
2023/10/09 09:22:56;;;;;;;6.28;4.00;;;16.40;99.90;;;;;;5093204;28;20040;-76
2023/10/09 09:25:24;;;;;;;13.77;5.10;;;16.60;99.90;;;;;;5109863;28;20044;-76
2023/10/09 09:27:54;;;;;;;7.55;4.30;;;16.50;99.90;;;;;;5109812;28;20048;-76
2023/10/09 09:30:33;;;;;;;11.00;4.85;;;16.50;99.90;;;;;;5109930;28;20051;-76
2023/10/09 09:33:20;;;;;;;7.03;4.10;;;16.60;99.90;;;;;;5109879;28;20132;-76
2023/10/09 09:35:58;;;;;;;;;;;16.70;99.90;;;;;;5110336;28;20035;-76
2023/10/09 09:38:27;;;;;;;7.65;4.00;;;16.60;99.90;;;;;;5109492;28;19984;-76
2023/10/09 09:41:02;;;;;;;7.28;3.90;;;16.70;99.90;;;;;;5111037;28;20044;-76
2023/10/09 09:43:35;;;;;;;8.65;3.83;;;16.60;99.90;;;;;;5113376;28;20109;-76
2023/10/09 09:46:07;;;;;;;7.32;3.80;;;16.70;99.90;;;;;;5096568;28;20047;-76
2023/10/09 09:48:39;;;;;;;5.10;3.10;;;16.60;99.90;;;;;;5113656;28;20094;-76
2023/10/09 09:51:08;;;;;;;8.50;4.28;;;16.90;99.90;;;;;;5113348;28;20494;-76
2023/10/09 09:53:37;;;;;;;9.23;4.10;;;16.90;99.90;;;;;;5113134;28;20047;-76
2023/10/09 09:56:04;;;;;;;7.95;3.50;;;16.90;99.90;;;;;;5113376;28;20122;-76
2023/10/09 09:58:42;;;;;;;7.47;3.95;;;16.80;99.90;;;;;;5113010;28;20771;-76
2023/10/09 10:01:16;;;;;;;9.57;4.07;;;16.80;99.90;;;;;;5096025;28;20034;-76
2023/10/09 10:04:01;;;;;;;9.23;4.15;;;16.80;99.90;;;;;;5113066;28;20047;-76
2023/10/09 10:06:29;;;;;;;8.18;3.60;;;16.90;99.90;;;;;;5112705;28;20040;-76
2023/10/09 10:08:55;;;;;;;6.63;3.50;;;16.80;99.90;;;;;;5112814;28;20130;-76
2023/10/09 10:11:46;;;;;;;8.40;3.63;;;16.90;99.90;;;;;;5112725;28;20181;-76
2023/10/09 10:14:31;;;;;;;7.95;3.60;;;16.80;99.90;;;;;;5112572;28;20351;-76
2023/10/09 10:17:21;;;;;;;11.38;4.07;;;16.80;99.90;;;;;;5098143;28;20052;-76
2023/10/09 10:22:47;;;;;;;8.98;3.55;;;16.90;99.90;;;;;;5112974;28;20042;-76
2023/10/09 10:26:33;;;;;;;8.10;3.70;;;16.80;99.90;;;;;;5092972;28;20443;-76
2023/10/09 10:28:35;;;;;;;7.88;3.50;;;16.70;99.90;;;;;;5094153;28;20051;-76
2023/10/09 10:31:04;;;;;;;6.97;3.15;;;16.80;99.90;;;;;;5095691;28;20574;-76
2023/10/09 10:33:54;;;;;;;7.10;3.35;;;16.80;99.90;;;;;;5112257;28;20052;-76
2023/10/09 10:36:26;;;;;;;7.57;3.80;;;17.00;99.90;;;;;;5112076;28;20383;-76
2023/10/09 10:41:54;;;;;;;8.35;3.60;;;17.10;99.90;;;;;;5110007;28;20103;-76
2023/10/09 10:44:36;;;;;;;8.73;3.88;;;17.00;99.90;;;;;;5095303;28;20089;-76
2023/10/09 10:47:04;;;;;;;10.65;3.85;;;16.90;99.90;;;;;;5112419;28;20456;-76
2023/10/09 10:49:36;;;;;;;10.93;4.20;;;17.10;99.90;;;;;;5112268;28;20071;-74
2023/10/09 10:52:16;;;;;;;10.20;3.80;;;17.00;99.90;;;;;;5111567;28;20039;-74
2023/10/09 10:57:19;;;;;;;9.23;3.45;;;17.00;99.90;;;;;;5111472;28;20049;-74
2023/10/09 10:59:45;;;;;;;9.23;3.20;;;17.00;99.90;;;;;;5110045;28;20078;-75
2023/10/09 11:04:44;;;;;;;11.02;3.78;;;16.80;99.90;;;;;;5105633;28;20271;-75
2023/10/09 11:07:24;;;;;;;8.82;3.63;;;16.80;99.90;;;;;;5103810;28;20048;-75
2023/10/09 11:15:43;;;;;;;9.43;4.07;;;16.80;99.90;;;;;;5111556;28;20053;-74
2023/10/09 11:28:49;;;;;;;9.93;3.40;;;16.70;99.90;;;;;;5110948;28;20066;-74
2023/10/09 11:31:16;;;;;;;10.73;3.85;;;16.70;99.90;;;;;;5094888;28;20055;-74
2023/10/09 11:33:51;;;;;;;7.15;3.35;;;16.80;99.90;;;;;;5111050;28;20483;-74
2023/10/09 11:36:31;;;;;;;10.32;3.60;;;16.80;99.90;;;;;;5111040;28;20039;-74
2023/10/09 11:41:44;;;;;;;8.13;3.03;;;16.90;99.90;;;;;;5110693;28;20047;-74
2023/10/09 11:44:18;;;;;;;7.18;3.00;;;16.70;99.90;;;;;;5060964;28;20084;-74
2023/10/09 11:52:35;;;;;;;7.40;2.85;;;16.70;99.90;;;;;;5110710;28;20085;-74
2023/10/09 11:55:16;;;;;;;6.20;3.13;;;16.90;99.90;;;;;;5110835;28;20348;-74
2023/10/09 11:57:42;;;;;;;8.68;3.38;;;16.90;99.90;;;;;;5110380;28;20079;-74
2023/10/09 12:00:29;;;;;;;8.57;3.20;;;16.80;99.90;;;;;;5093510;28;20089;-74
2023/10/09 12:02:54;;;;;;;7.07;3.20;;;16.90;99.90;;;;;;5109384;28;20543;-75
2023/10/09 12:05:20;;;;;;;;;;;16.90;99.90;;;;;;5082570;28;20035;-74
2023/10/09 12:07:46;;;;;;;7.40;3.50;;;16.90;99.90;;;;;;5107485;28;19923;-74
2023/10/09 12:10:13;;;;;;;;;;;16.90;99.90;;;;;;5110900;28;20081;-74
2023/10/09 12:12:40;;;;;;;5.55;2.70;;;16.90;99.90;;;;;;5093522;28;20006;-74
2023/10/09 12:15:07;;;;;;;4.55;2.45;;;16.80;99.90;;;;;;5110250;28;20073;-74
2023/10/09 12:17:32;;;;;;;6.95;2.90;;;16.90;99.90;;;;;;5110000;28;20055;-74
2023/10/09 12:19:58;;;;;;;;;;;17.00;99.90;;;;;;5093608;28;20486;-74
2023/10/09 12:22:27;;;;;;;7.65;3.00;;;16.90;99.90;;;;;;5110316;28;19922;-74
2023/10/09 12:24:54;;;;;;;5.82;2.67;;;17.00;99.90;;;;;;5098607;28;20047;-72
2023/10/09 12:27:20;;;;;;;7.45;2.90;;;16.90;99.90;;;;;;5098278;28;20417;-73
2023/10/09 12:29:46;;;;;;;4.95;2.40;;;16.90;99.90;;;;;;5082277;28;20048;-73
2023/10/09 12:32:11;;;;;;;;;;;16.90;99.90;;;;;;5098538;28;20456;-73
2023/10/09 12:34:38;;;;;;;7.53;3.13;;;16.90;99.90;;;;;;5095924;28;19926;-74
2023/10/09 12:37:04;;;;;;;7.57;2.60;;;16.80;99.90;;;;;;5075254;28;20521;-74
2023/10/09 12:39:40;;;;;;;8.77;3.38;;;16.80;99.90;;;;;;5103738;28;20040;-73
2023/10/09 12:42:06;;;;;;;7.03;2.73;;;16.90;99.90;;;;;;5101328;28;20457;-73
2023/10/09 12:44:40;;;;;;;5.22;2.20;;;17.00;99.90;;;;;;5092360;28;20047;-75
2023/10/09 12:47:07;;;;;;;5.35;2.03;;;16.90;99.90;;;;;;5083537;28;20160;-73
2023/10/09 12:49:33;;;;;;;4.85;2.40;;;17.00;99.90;;;;;;5080123;28;20032;-73
2023/10/09 12:51:58;;;;;;;;;;;17.10;99.90;;;;;;5101250;28;20042;-73
2023/10/09 12:54:28;;;;;;;7.13;2.53;;;17.10;99.90;;;;;;5085138;28;19916;-74
2023/10/09 12:56:59;;;;;;;7.65;2.72;;;17.00;99.90;;;;;;5097327;28;20225;-76
2023/10/09 12:59:24;;;;;;;6.85;2.50;;;16.90;99.90;;;;;;5090077;28;20541;-77
2023/10/09 13:01:57;;;;;;;;;;;17.10;99.90;;;;;;5096413;28;20067;-75
2023/10/09 13:04:23;;;;;;;8.02;2.92;;;17.00;99.90;;;;;;5097276;28;19916;-75
2023/10/09 13:06:54;;;;;;;6.32;2.63;;;17.10;99.90;;;;;;5095370;28;20589;-77
2023/10/09 13:09:35;;;;;;;6.00;2.60;;;17.00;99.90;;;;;;5099263;28;20044;-76
2023/10/09 13:12:01;;;;;;;8.05;2.70;;;17.00;99.90;;;;;;5101530;28;20048;-76
2023/10/09 13:14:27;;;;;;;;;;;17.10;99.90;;;;;;5100551;28;20075;-75
2023/10/09 13:16:53;;;;;;;5.95;2.40;;;17.10;99.90;;;;;;5101926;28;19946;-77
2023/10/09 13:19:19;;;;;;;;;;;17.10;99.90;;;;;;5085742;28;20174;-76
2023/10/09 13:21:44;;;;;;;8.93;2.55;;;17.10;99.90;;;;;;5102197;28;19920;-76
2023/10/09 13:24:15;;;;;;;5.13;2.10;;;17.10;99.90;;;;;;5082983;28;20101;-76
2023/10/09 13:26:51;;;;;;;7.57;2.75;;;17.20;99.90;;;;;;5105210;28;20069;-75
2023/10/09 13:29:22;;;;;;;5.80;2.42;;;17.20;99.90;;;;;;5103689;28;20043;-76
2023/10/09 13:31:51;;;;;;;5.05;2.00;;;17.30;99.90;;;;;;5097027;28;20087;-76
2023/10/09 13:34:17;;;;;;;5.60;2.25;;;17.30;99.90;;;;;;5100040;28;20054;-76
2023/10/09 13:36:52;;;;;;;;;;;17.30;99.90;;;;;;5107659;28;20118;-76
2023/10/09 13:39:25;;;;;;;7.80;2.40;;;17.10;99.90;;;;;;5113031;28;19923;-76
2023/10/09 13:41:58;;;;;;;6.45;2.20;;;17.20;99.90;;;;;;5094757;28;20039;-76
2023/10/09 13:44:27;;;;;;;5.32;2.05;;;17.10;99.90;;;;;;5110137;28;20040;-76
2023/10/09 13:47:05;;;;;;;5.38;2.22;;;17.20;99.90;;;;;;5102304;28;20070;-76
2023/10/09 13:49:32;;;;;;;6.72;2.20;;;17.20;99.90;;;;;;5102170;28;20055;-77
2023/10/09 13:51:59;;;;;;;6.38;2.50;;;17.20;99.90;;;;;;5104015;28;20429;-77
2023/10/09 13:57:04;;;;;;;7.35;2.83;;;17.10;99.90;;;;;;5098944;28;20079;-76
2023/10/09 13:59:30;;;;;;;5.30;2.80;;;17.10;99.90;;;;;;5079371;28;20048;-75
2023/10/09 14:01:58;;;;;;;6.38;3.00;;;17.00;99.90;;;;;;5101450;28;20035;-75
2023/10/09 14:04:23;;;;;;;7.10;2.50;;;17.00;99.90;;;;;;5098666;28;20044;-76
2023/10/09 14:06:56;;;;;;;;;;;17.00;99.90;;;;;;5102556;28;20048;-76
2023/10/09 14:09:44;;;;;;;6.20;2.13;;;17.00;99.90;;;;;;5101136;28;20298;-75
2023/10/09 14:12:11;;;;;;;4.97;2.45;;;17.00;99.90;;;;;;5099279;28;20047;-76
2023/10/09 14:14:38;;;;;;;4.90;2.20;;;16.90;99.90;;;;;;5098060;28;20193;-75
2023/10/09 14:17:13;;;;;;;4.45;2.03;;;16.90;99.90;;;;;;5086519;28;20391;-75
2023/10/09 14:19:50;;;;;;;6.07;2.10;;;16.70;99.90;;;;;;5083912;28;20091;-75
2023/10/09 14:22:24;;;;;;;5.65;1.83;;;16.70;99.90;;;;;;5101170;28;20047;-76
2023/10/09 14:24:55;;;;;;;5.57;2.25;;;16.70;99.90;;;;;;5102568;28;20040;-76
2023/10/09 14:27:25;;;;;;;4.75;2.10;;;16.70;99.90;;;;;;5098610;28;20510;-76
2023/10/09 14:29:55;;;;;;;7.90;2.78;;;16.60;99.90;;;;;;5105503;28;20031;-75
2023/10/09 14:32:28;;;;;;;7.78;2.88;;;16.60;99.90;;;;;;5083369;28;20043;-76
2023/10/09 14:34:54;;;;;;;7.07;2.60;;;16.60;99.90;;;;;;5104771;28;20040;-76
2023/10/09 14:37:21;;;;;;;5.13;2.15;;;16.60;99.90;;;;;;5098845;28;20056;-76
2023/10/09 14:39:50;;;;;;;6.30;2.45;;;16.60;99.90;;;;;;5102189;28;20062;-76
2023/10/09 14:42:16;;;;;;;6.95;1.95;;;16.70;99.90;;;;;;5102410;28;20059;-76
2023/10/09 14:44:44;;;;;;;6.57;2.15;;;16.70;99.90;;;;;;5081048;28;20040;-76
2023/10/09 14:47:11;;;;;;;3.35;1.70;;;16.70;99.90;;;;;;5099924;28;20047;-76
2023/10/09 14:49:43;;;;;;;7.70;2.20;;;16.70;99.90;;;;;;5096021;28;20071;-76
2023/10/09 14:52:10;;;;;;;5.32;1.90;;;16.70;99.90;;;;;;5085483;28;20036;-76
2023/10/09 14:54:37;;;;;;;5.28;1.98;;;16.70;99.90;;;;;;5095271;28;20073;-76
2023/10/09 14:57:05;;;;;;;5.20;2.20;;;16.60;99.90;;;;;;5095854;28;20126;-76
2023/10/09 14:59:34;;;;;;;5.97;1.85;;;16.60;99.90;;;;;;5096759;28;20048;-76
2023/10/09 15:02:01;;;;;;;6.22;2.38;;;16.70;99.90;;;;;;5097582;28;20046;-76
2023/10/09 15:04:26;;;;;;;3.95;1.60;;;16.70;99.90;;;;;;5100325;28;20032;-75
2023/10/09 15:06:52;;;;;;;;;;;16.70;99.90;;;;;;5102482;28;20096;-75
2023/10/09 15:09:28;;;;;;;5.20;2.30;;;16.80;99.90;;;;;;5099073;28;19923;-75
2023/10/09 15:11:54;;;;;;;4.45;1.90;;;16.70;99.90;;;;;;5098624;28;20055;-74
2023/10/09 15:14:20;;;;;;;5.65;2.20;;;16.70;99.90;;;;;;5097752;28;20044;-75
2023/10/09 15:16:47;;;;;;;6.65;2.13;;;16.70;99.90;;;;;;5099179;28;20036;-75
2023/10/09 15:19:16;;;;;;;5.80;2.22;;;16.70;99.90;;;;;;5082653;28;20073;-75
2023/10/09 15:21:45;;;;;;;4.55;1.90;;;16.70;99.90;;;;;;5097680;28;20390;-82
2023/10/09 15:24:15;;;;;;;6.22;2.58;;;16.70;99.90;;;;;;5083408;28;20067;-76
2023/10/09 15:26:52;;;;;;;2.97;1.85;;;16.80;99.90;;;;;;5082605;28;20086;-76
2023/10/09 15:29:27;;;;;;;;;;;16.80;99.90;;;;;;5103949;28;20652;-76
2023/10/09 15:31:55;;;;;;;5.47;1.98;;;16.80;99.90;;;;;;5105929;28;20359;-76
2023/10/09 15:34:21;;;;;;;5.85;2.30;;;16.80;99.90;;;;;;5099035;28;20096;-76
2023/10/09 15:36:47;;;;;;;3.47;1.58;;;16.80;99.90;;;;;;5097702;28;20047;-76
2023/10/09 15:39:13;;;;;;;;;;;16.70;99.90;;;;;;5081142;28;20058;-75
2023/10/09 15:41:42;;;;;;;3.60;1.40;;;16.70;99.90;;;;;;5101340;28;20260;-75